createdAt,value
2022-12-20T00:02:09.507Z,4.87
2022-12-20T00:04:36.062Z,4.77
2022-12-20T00:07:02.617Z,4.70
2022-12-20T00:09:29.212Z,3.70
2022-12-20T00:11:55.698Z,4.70
2022-12-20T00:14:22.274Z,3.00
2022-12-20T00:16:48.889Z,4.20
2022-12-20T00:19:15.493Z,3.10
2022-12-20T00:21:42.102Z,3.50
2022-12-20T00:24:08.665Z,3.70
2022-12-20T00:26:35.223Z,4.40
2022-12-20T00:29:01.723Z,4.70
2022-12-20T00:31:28.305Z,3.60
2022-12-20T00:33:54.877Z,3.60
2022-12-20T00:36:21.377Z,4.80
2022-12-20T00:38:47.922Z,4.23
2022-12-20T00:41:14.447Z,3.70
2022-12-20T00:43:40.924Z,3.57
2022-12-20T00:46:07.438Z,3.70
2022-12-20T00:48:34.004Z,4.17
2022-12-20T00:51:00.529Z,4.03
2022-12-20T00:53:27.030Z,4.87
2022-12-20T00:55:53.537Z,4.07
2022-12-20T00:58:20.313Z,3.97
2022-12-20T01:00:52.049Z,4.33
2022-12-20T01:03:22.326Z,4.60
2022-12-20T01:05:48.962Z,4.20
2022-12-20T01:08:15.441Z,3.83
2022-12-20T01:10:42.312Z,4.43
2022-12-20T01:13:08.785Z,3.87
2022-12-20T01:15:35.324Z,5.10
2022-12-20T01:18:01.811Z,4.20
2022-12-20T01:20:28.296Z,3.87
2022-12-20T01:22:54.819Z,4.07
2022-12-20T01:25:21.322Z,4.13
2022-12-20T01:27:47.815Z,4.00
2022-12-20T01:30:14.413Z,4.20
2022-12-20T01:32:40.924Z,4.63
2022-12-20T01:35:07.474Z,3.87
2022-12-20T01:37:34.009Z,5.00
2022-12-20T01:40:00.464Z,5.30
2022-12-20T01:42:26.941Z,4.83
2022-12-20T01:44:53.546Z,3.80
2022-12-20T01:47:20.104Z,4.63
2022-12-20T01:49:46.598Z,4.23
2022-12-20T01:52:13.645Z,4.27
2022-12-20T01:54:40.200Z,4.20
2022-12-20T01:57:06.710Z,4.47
2022-12-20T01:59:33.274Z,4.77
2022-12-20T02:01:59.965Z,4.97
2022-12-20T02:04:26.599Z,4.63
2022-12-20T02:06:53.190Z,5.60
2022-12-20T02:09:19.677Z,5.80
2022-12-20T02:11:46.485Z,5.00
2022-12-20T02:14:13.042Z,5.00
2022-12-20T02:16:39.546Z,4.70
2022-12-20T02:19:06.395Z,5.40
2022-12-20T02:21:32.895Z,6.00
2022-12-20T02:23:59.409Z,4.57
2022-12-20T02:26:25.926Z,5.23
2022-12-20T02:28:52.439Z,5.10
2022-12-20T02:31:19.032Z,7.30
2022-12-20T02:33:45.589Z,5.10
2022-12-20T02:36:12.145Z,5.50
2022-12-20T02:38:38.695Z,5.10
2022-12-20T02:41:05.259Z,5.20
2022-12-20T02:43:50.503Z,6.00
2022-12-20T02:46:17.137Z,6.07
2022-12-20T02:48:43.646Z,6.67
2022-12-20T02:51:10.243Z,5.63
2022-12-20T02:53:36.734Z,6.50
2022-12-20T02:56:03.315Z,5.27
2022-12-20T02:58:29.854Z,6.30
2022-12-20T03:00:56.404Z,6.47
2022-12-20T03:03:23.065Z,5.57
2022-12-20T03:05:49.708Z,6.20
2022-12-20T03:08:16.197Z,6.10
2022-12-20T03:10:42.716Z,6.07
2022-12-20T03:13:09.770Z,6.00
2022-12-20T03:15:36.280Z,5.83
2022-12-20T03:18:02.777Z,5.80
2022-12-20T03:20:29.273Z,5.00
2022-12-20T03:22:55.775Z,6.43
2022-12-20T03:25:22.284Z,5.27
2022-12-20T03:27:48.834Z,7.40
2022-12-20T03:30:15.341Z,6.30
2022-12-20T03:32:41.846Z,6.67
2022-12-20T03:35:08.427Z,5.53
2022-12-20T03:37:34.903Z,6.97
2022-12-20T03:40:01.508Z,5.87
2022-12-20T03:42:28.002Z,5.73
2022-12-20T03:44:54.536Z,5.57
2022-12-20T03:47:21.145Z,6.90
2022-12-20T03:49:47.632Z,6.73
2022-12-20T03:52:14.132Z,6.50
2022-12-20T03:54:40.668Z,6.50
2022-12-20T03:57:07.170Z,6.37
2022-12-20T03:59:33.786Z,6.10
2022-12-20T04:02:00.465Z,6.13
2022-12-20T04:04:27.131Z,7.30
2022-12-20T04:06:53.612Z,6.47
2022-12-20T04:09:20.126Z,6.10
2022-12-20T04:11:46.653Z,5.83
2022-12-20T04:14:13.142Z,6.03
2022-12-20T04:16:39.649Z,5.73
2022-12-20T04:19:06.264Z,7.13
2022-12-20T04:21:32.759Z,6.07
2022-12-20T04:26:27.093Z,6.73
2022-12-20T04:28:53.585Z,6.27
2022-12-20T04:31:24.176Z,6.80
2022-12-20T04:33:51.159Z,7.07
2022-12-20T04:36:17.731Z,6.77
2022-12-20T04:38:44.258Z,7.13
2022-12-20T04:41:21.958Z,6.97
2022-12-20T04:43:48.546Z,8.60
2022-12-20T04:46:15.115Z,6.63
2022-12-20T04:48:59.196Z,6.90
2022-12-20T04:51:26.336Z,6.83
2022-12-20T04:53:52.870Z,6.60
2022-12-20T04:56:19.458Z,6.70
2022-12-20T04:58:45.989Z,7.00
2022-12-20T05:01:12.595Z,8.03
2022-12-20T05:03:39.297Z,7.10
2022-12-20T05:06:05.895Z,6.70
2022-12-20T05:08:32.394Z,6.23
2022-12-20T05:10:58.965Z,6.63
2022-12-20T05:13:25.480Z,5.53
2022-12-20T05:15:52.236Z,7.30
2022-12-20T05:18:19.022Z,5.43
2022-12-20T05:20:45.511Z,6.63
2022-12-20T05:23:30.906Z,7.17
2022-12-20T05:26:16.336Z,6.80
2022-12-20T05:28:42.834Z,7.63
2022-12-20T05:31:09.352Z,5.87
2022-12-20T05:33:35.949Z,6.57
2022-12-20T05:36:02.467Z,6.70
2022-12-20T05:38:28.929Z,7.67
2022-12-20T05:40:55.410Z,6.57
2022-12-20T05:43:22.129Z,6.97
2022-12-20T05:45:48.664Z,6.43
2022-12-20T05:48:15.221Z,6.37
2022-12-20T05:50:41.853Z,7.50
2022-12-20T05:53:11.893Z,7.03
2022-12-20T05:55:40.460Z,6.60
2022-12-20T05:58:07.714Z,7.27
2022-12-20T06:00:34.253Z,8.20
2022-12-20T06:03:00.982Z,6.57
2022-12-20T06:05:27.588Z,7.43
2022-12-20T06:07:54.079Z,7.20
2022-12-20T06:10:20.619Z,6.20
2022-12-20T06:12:47.120Z,6.47
2022-12-20T06:15:15.478Z,6.73
2022-12-20T06:17:42.350Z,6.70
2022-12-20T06:20:08.894Z,7.00
2022-12-20T06:22:37.486Z,6.83
2022-12-20T06:25:04.781Z,7.40
2022-12-20T06:27:31.307Z,7.70
2022-12-20T06:29:57.958Z,6.57
2022-12-20T06:32:24.470Z,6.17
2022-12-20T06:34:50.990Z,6.97
2022-12-20T06:37:17.492Z,6.57
2022-12-20T06:39:44.008Z,6.10
2022-12-20T06:42:10.521Z,7.67
2022-12-20T06:44:37.054Z,6.17
2022-12-20T06:47:03.541Z,5.63
2022-12-20T06:55:02.633Z,5.63
2022-12-20T06:57:29.125Z,5.97
2022-12-20T06:59:55.604Z,6.40
2022-12-20T07:02:23.975Z,5.73
2022-12-20T07:04:53.563Z,5.80
2022-12-20T07:07:20.068Z,5.23
2022-12-20T07:09:46.575Z,5.60
2022-12-20T07:12:13.097Z,5.77
2022-12-20T07:14:39.911Z,5.13
2022-12-20T07:17:07.528Z,5.80
2022-12-20T07:19:34.161Z,5.80
2022-12-20T07:22:00.733Z,5.17
2022-12-20T07:24:27.205Z,5.90
2022-12-20T07:26:54.859Z,5.00
2022-12-20T07:29:21.426Z,4.87
2022-12-20T07:31:47.973Z,5.80
2022-12-20T07:34:14.497Z,6.00
2022-12-20T07:36:40.990Z,5.50
2022-12-20T07:39:07.612Z,5.90
2022-12-20T07:41:34.134Z,6.13
2022-12-20T07:44:00.639Z,5.67
2022-12-20T07:46:27.347Z,5.67
2022-12-20T07:48:54.887Z,5.20
2022-12-20T07:51:21.524Z,5.77
2022-12-20T07:53:48.029Z,5.07
2022-12-20T07:56:14.704Z,5.80
2022-12-20T07:58:41.209Z,5.33
2022-12-20T08:01:07.762Z,5.20
2022-12-20T08:03:34.384Z,4.93
2022-12-20T08:06:03.713Z,5.00
2022-12-20T08:08:30.198Z,5.73
2022-12-20T08:10:56.738Z,5.63
2022-12-20T08:13:23.228Z,5.30
2022-12-20T08:15:49.745Z,5.47
2022-12-20T08:18:16.354Z,5.23
2022-12-20T08:20:42.910Z,5.83
2022-12-20T08:23:09.431Z,5.63
2022-12-20T08:25:41.259Z,5.20
2022-12-20T08:28:08.402Z,5.93
2022-12-20T08:30:34.955Z,5.50
2022-12-20T08:33:01.475Z,4.57
2022-12-20T08:35:28.165Z,6.47
2022-12-20T08:37:54.675Z,5.67
2022-12-20T08:40:21.188Z,4.80
2022-12-20T08:42:47.661Z,5.87
2022-12-20T08:45:14.240Z,6.60
2022-12-20T08:47:40.745Z,5.43
2022-12-20T08:50:07.234Z,5.90
2022-12-20T08:52:33.717Z,6.10
2022-12-20T08:55:01.764Z,5.50
2022-12-20T08:57:28.947Z,5.50
2022-12-20T08:59:55.525Z,5.77
2022-12-20T09:02:22.228Z,5.43
2022-12-20T09:04:48.950Z,4.83
2022-12-20T09:07:15.497Z,5.00
2022-12-20T09:09:42.034Z,5.13
2022-12-20T09:12:08.551Z,5.10
2022-12-20T09:14:35.062Z,6.63
2022-12-20T09:17:01.610Z,5.07
2022-12-20T09:19:28.643Z,4.67
2022-12-20T09:21:55.558Z,5.33
2022-12-20T09:24:22.110Z,4.83
2022-12-20T09:26:49.178Z,4.90
2022-12-20T09:29:24.996Z,3.80
2022-12-20T09:31:53.717Z,5.03
2022-12-20T09:34:20.256Z,5.40
2022-12-20T09:36:46.802Z,4.80
2022-12-20T09:39:13.362Z,4.60
2022-12-20T09:41:39.864Z,4.93
2022-12-20T09:44:06.454Z,5.07
2022-12-20T09:46:33.405Z,4.63
2022-12-20T09:49:00.199Z,4.53
2022-12-20T09:51:27.030Z,4.10
2022-12-20T09:53:53.534Z,4.80
2022-12-20T09:56:20.023Z,4.60
2022-12-20T09:58:46.518Z,4.90
2022-12-20T10:01:15.360Z,5.63
2022-12-20T10:03:42.258Z,4.50
2022-12-20T10:06:09.128Z,4.60
2022-12-20T10:08:35.728Z,5.07
2022-12-20T10:11:02.244Z,5.43
2022-12-20T10:13:28.817Z,4.60
2022-12-20T10:15:55.484Z,4.67
2022-12-20T10:18:22.379Z,4.60
2022-12-20T10:20:49.249Z,4.20
2022-12-20T10:23:15.826Z,4.00
2022-12-20T10:25:42.401Z,4.40
2022-12-20T10:28:08.879Z,4.77
2022-12-20T10:30:35.616Z,4.67
2022-12-20T10:33:02.705Z,4.50
2022-12-20T10:35:29.291Z,4.13
2022-12-20T10:38:07.157Z,4.70
2022-12-20T10:41:09.918Z,4.60
2022-12-20T10:43:21.232Z,4.77
2022-12-20T10:45:47.747Z,4.90
2022-12-20T10:48:14.285Z,3.53
2022-12-20T10:50:40.863Z,3.27
2022-12-20T10:53:07.396Z,3.10
2022-12-20T10:55:35.391Z,3.60
2022-12-20T10:58:01.894Z,4.00
2022-12-20T11:00:29.471Z,3.70
2022-12-20T11:02:56.205Z,4.90
2022-12-20T11:05:23.091Z,4.50
2022-12-20T11:08:08.463Z,4.27
2022-12-20T11:10:36.243Z,3.97
2022-12-20T11:13:02.807Z,3.87
2022-12-20T11:15:34.301Z,4.53
2022-12-20T11:18:01.541Z,3.57
2022-12-20T11:20:28.067Z,4.33
2022-12-20T11:22:54.589Z,3.30
2022-12-20T11:25:21.133Z,4.00
2022-12-20T11:27:47.617Z,3.80
2022-12-20T11:30:14.207Z,3.70
2022-12-20T11:32:46.508Z,4.50
2022-12-20T11:35:15.511Z,4.67
2022-12-20T11:37:42.036Z,4.47
2022-12-20T11:40:08.591Z,3.90
2022-12-20T11:42:35.113Z,3.73
2022-12-20T11:45:08.748Z,4.47
2022-12-20T11:47:36.452Z,3.97
2022-12-20T11:50:03.133Z,3.30
2022-12-20T11:52:29.717Z,4.10
2022-12-20T11:54:56.499Z,3.50
2022-12-20T11:57:22.995Z,4.50
2022-12-20T11:59:49.549Z,3.87
2022-12-20T12:02:16.219Z,3.70
2022-12-20T12:04:42.896Z,3.30
2022-12-20T12:07:09.414Z,4.27
2022-12-20T12:09:36.002Z,4.00
2022-12-20T12:12:07.926Z,4.13
2022-12-20T12:14:35.512Z,4.53
2022-12-20T12:17:02.107Z,4.40
2022-12-20T12:19:28.687Z,4.53
2022-12-20T12:21:56.291Z,3.63
2022-12-20T12:24:22.885Z,3.23
2022-12-20T12:26:49.444Z,4.30
2022-12-20T12:29:15.987Z,3.80
2022-12-20T12:31:42.564Z,3.90
2022-12-20T12:34:09.136Z,4.03
2022-12-20T12:36:35.654Z,4.13
2022-12-20T12:39:02.799Z,3.90
2022-12-20T12:41:29.446Z,3.83
2022-12-20T12:43:56.007Z,3.70
2022-12-20T12:46:22.585Z,3.60
2022-12-20T12:48:49.790Z,4.10
2022-12-20T12:51:16.299Z,3.40
2022-12-20T12:53:42.870Z,3.47
2022-12-20T12:56:41.654Z,3.63
2022-12-20T12:58:56.004Z,3.53
2022-12-20T13:01:22.618Z,4.10
2022-12-20T13:03:49.436Z,4.37
2022-12-20T13:06:15.950Z,4.60
2022-12-20T13:08:42.455Z,4.07
2022-12-20T13:11:08.975Z,3.70
2022-12-20T13:13:35.742Z,3.87
2022-12-20T13:16:02.232Z,3.90
2022-12-20T13:18:29.196Z,4.00
2022-12-20T13:20:55.700Z,3.60
2022-12-20T13:23:22.529Z,4.27
2022-12-20T13:25:49.049Z,3.00
2022-12-20T13:28:16.389Z,4.00
2022-12-20T13:30:43.568Z,3.30
2022-12-20T13:33:10.301Z,3.93
2022-12-20T13:35:37.204Z,3.10
2022-12-20T13:38:06.992Z,3.30
2022-12-20T13:40:33.581Z,4.00
2022-12-20T13:43:00.255Z,3.17
2022-12-20T13:45:26.887Z,3.60
2022-12-20T13:47:53.492Z,3.60
2022-12-20T13:50:20.083Z,4.10
2022-12-20T13:52:46.687Z,3.57
2022-12-20T13:55:13.401Z,3.60
2022-12-20T13:57:39.974Z,3.47
2022-12-20T14:00:07.799Z,4.20
2022-12-20T14:02:36.380Z,3.97
2022-12-20T14:05:03.227Z,2.80
2022-12-20T14:07:30.028Z,3.00
2022-12-20T14:09:56.740Z,3.97
2022-12-20T14:12:28.556Z,3.67
2022-12-20T14:14:56.680Z,4.30
2022-12-20T14:17:23.352Z,3.60
2022-12-20T14:19:49.973Z,4.23
2022-12-20T14:22:16.837Z,4.63
2022-12-20T14:24:43.549Z,3.70
2022-12-20T14:27:10.203Z,3.80
2022-12-20T14:29:36.799Z,4.67
2022-12-20T14:32:03.343Z,3.50
2022-12-20T14:34:32.105Z,4.37
2022-12-20T14:37:00.704Z,3.57
2022-12-20T14:39:27.293Z,3.40
2022-12-20T14:41:53.842Z,4.47
2022-12-20T14:44:20.452Z,4.10
2022-12-20T14:46:49.029Z,3.90
2022-12-20T14:49:16.030Z,3.60
2022-12-20T14:51:42.597Z,3.63
2022-12-20T14:54:09.215Z,5.57
2022-12-20T14:56:35.892Z,3.30
2022-12-20T14:59:02.508Z,3.27
2022-12-20T15:01:31.194Z,3.50
2022-12-20T15:03:58.644Z,3.23
2022-12-20T15:06:25.511Z,2.77
2022-12-20T15:08:52.061Z,3.10
2022-12-20T15:11:19.067Z,3.20
2022-12-20T15:13:51.417Z,3.13
2022-12-20T15:16:19.575Z,3.20
2022-12-20T15:18:46.237Z,4.10
2022-12-20T15:21:12.917Z,3.20
2022-12-20T15:23:39.941Z,3.17
2022-12-20T15:26:06.638Z,3.73
2022-12-20T15:28:33.368Z,3.40
2022-12-20T15:31:00.230Z,3.40
2022-12-20T15:33:27.069Z,4.00
2022-12-20T15:35:53.623Z,4.10
2022-12-20T15:38:34.583Z,3.50
2022-12-20T15:41:07.177Z,4.13
2022-12-20T15:43:38.609Z,3.40
2022-12-20T15:46:05.871Z,2.63
2022-12-20T15:48:32.670Z,3.93
2022-12-20T15:50:59.257Z,3.00
2022-12-20T15:53:27.448Z,3.27
2022-12-20T15:55:54.034Z,3.57
2022-12-20T15:58:20.639Z,4.13
2022-12-20T16:00:47.267Z,3.30
2022-12-20T16:03:13.854Z,4.10
2022-12-20T16:05:40.740Z,4.00
2022-12-20T16:08:07.297Z,3.70
2022-12-20T16:10:33.904Z,4.27
2022-12-20T16:13:00.624Z,4.50
2022-12-20T16:15:27.257Z,4.80
2022-12-20T16:17:53.955Z,5.20
2022-12-20T16:20:20.508Z,4.43
2022-12-20T16:22:47.033Z,3.90
2022-12-20T16:25:18.176Z,4.60
2022-12-20T16:27:46.508Z,3.97
2022-12-20T16:30:13.105Z,4.13
2022-12-20T16:32:39.600Z,4.20
2022-12-20T16:35:06.661Z,4.13
2022-12-20T16:37:38.711Z,4.23
2022-12-20T16:40:05.655Z,4.53
2022-12-20T16:42:32.155Z,4.00
2022-12-20T16:44:58.654Z,3.87
2022-12-20T16:47:25.170Z,4.47
2022-12-20T16:49:53.627Z,4.53
2022-12-20T16:52:20.516Z,3.70
2022-12-20T16:54:47.110Z,4.43
2022-12-20T16:57:13.621Z,3.23
2022-12-20T16:59:40.129Z,3.67
2022-12-20T17:02:06.835Z,3.93
2022-12-20T17:04:33.542Z,3.50
2022-12-20T17:07:00.038Z,3.73
2022-12-20T17:12:11.215Z,4.10
2022-12-20T17:14:38.242Z,3.50
2022-12-20T17:17:04.873Z,3.90
2022-12-20T17:19:31.361Z,4.00
2022-12-20T17:24:42.146Z,3.67
2022-12-20T17:27:08.628Z,4.93
2022-12-20T17:29:35.120Z,3.83
2022-12-20T17:32:03.537Z,3.80
2022-12-20T17:34:30.235Z,5.80
2022-12-20T17:36:56.872Z,4.13
2022-12-20T17:39:23.393Z,4.20
2022-12-20T17:41:49.919Z,4.27
2022-12-20T17:44:16.457Z,4.60
2022-12-20T17:46:42.991Z,4.97
2022-12-20T17:49:10.570Z,4.37
2022-12-20T17:51:37.050Z,4.63
2022-12-20T17:54:03.573Z,5.03
2022-12-20T17:56:30.587Z,4.57
2022-12-20T17:58:57.225Z,5.00
2022-12-20T18:01:23.869Z,5.03
2022-12-20T18:04:03.411Z,4.73
2022-12-20T18:06:31.287Z,5.37
2022-12-20T18:08:57.810Z,5.47
2022-12-20T18:11:24.340Z,5.07
2022-12-20T18:13:50.835Z,5.00
2022-12-20T18:16:17.349Z,5.10
2022-12-20T18:18:43.857Z,5.80
2022-12-20T18:21:10.367Z,4.40
2022-12-20T18:23:36.896Z,4.80
2022-12-20T18:26:03.387Z,4.83
2022-12-20T18:28:29.871Z,4.43
2022-12-20T18:30:56.877Z,4.57
2022-12-20T18:33:23.526Z,5.10
2022-12-20T18:35:50.078Z,4.57
2022-12-20T18:38:16.865Z,4.60
2022-12-20T18:40:43.431Z,4.13
2022-12-20T18:43:09.912Z,4.10
2022-12-20T18:45:36.834Z,4.97
2022-12-20T18:48:03.410Z,5.07
2022-12-20T18:50:29.891Z,4.67
2022-12-20T18:53:01.068Z,4.50
2022-12-20T18:55:28.115Z,5.23
2022-12-20T18:57:54.581Z,4.33
2022-12-20T19:00:21.117Z,5.33
2022-12-20T19:02:47.808Z,4.50
2022-12-20T19:05:14.396Z,5.00
2022-12-20T19:07:40.880Z,4.80
2022-12-20T19:10:07.391Z,5.30
2022-12-20T19:12:33.932Z,4.63
2022-12-20T19:15:00.569Z,6.13
2022-12-20T19:17:27.048Z,5.80
2022-12-20T19:19:53.562Z,5.20
2022-12-20T19:22:20.038Z,5.30
2022-12-20T19:24:46.571Z,5.10
2022-12-20T19:27:13.061Z,5.20
2022-12-20T19:29:39.554Z,5.00
2022-12-20T19:32:06.115Z,5.47
2022-12-20T19:34:32.637Z,5.50
2022-12-20T19:36:59.172Z,5.17
2022-12-20T19:39:25.783Z,4.97
2022-12-20T19:44:38.753Z,4.93
2022-12-20T19:47:05.430Z,5.10
2022-12-20T19:49:32.242Z,5.93
2022-12-20T19:51:58.733Z,4.63
2022-12-20T19:54:25.237Z,5.43
2022-12-20T19:56:51.750Z,4.70
2022-12-20T19:59:18.345Z,5.23
2022-12-20T20:01:45.118Z,6.70
2022-12-20T20:04:11.786Z,4.90
2022-12-20T20:06:38.355Z,4.90
2022-12-20T20:09:04.881Z,5.97
2022-12-20T20:11:31.413Z,5.20
2022-12-20T20:13:57.969Z,5.07
2022-12-20T20:16:24.484Z,5.20
2022-12-20T20:18:51.071Z,5.10
2022-12-20T20:21:19.028Z,4.80
2022-12-20T20:23:45.644Z,4.90
2022-12-20T20:26:14.579Z,5.60
2022-12-20T20:28:45.158Z,5.63
2022-12-20T20:31:12.099Z,5.13
2022-12-20T20:33:38.732Z,5.80
2022-12-20T20:36:05.321Z,5.60
2022-12-20T20:38:31.784Z,6.17
2022-12-20T20:40:58.304Z,4.90
2022-12-20T20:43:24.816Z,6.00
2022-12-20T20:45:52.242Z,6.03
2022-12-20T20:48:19.004Z,6.50
2022-12-20T20:50:45.496Z,6.47
2022-12-20T20:53:12.007Z,5.73
2022-12-20T20:55:38.782Z,5.93
2022-12-20T20:58:05.278Z,7.33
2022-12-20T21:00:31.945Z,5.70
2022-12-20T21:02:59.156Z,6.57
2022-12-20T21:08:12.301Z,6.57
2022-12-20T21:10:38.953Z,6.17
2022-12-20T21:13:05.531Z,6.20
2022-12-20T21:15:32.098Z,6.73
2022-12-20T21:17:58.660Z,7.33
2022-12-20T21:20:26.478Z,6.97
2022-12-20T21:22:53.288Z,6.73
2022-12-20T21:25:19.820Z,6.83
2022-12-20T21:27:46.346Z,6.27
2022-12-20T21:30:12.841Z,6.47
2022-12-20T21:32:39.393Z,6.63
2022-12-20T21:35:06.077Z,7.13
2022-12-20T21:37:32.613Z,6.23
2022-12-20T21:39:59.310Z,6.93
2022-12-20T21:42:25.870Z,7.20
2022-12-20T21:44:52.537Z,6.67
2022-12-20T21:47:19.953Z,6.80
2022-12-20T21:49:46.456Z,6.33
2022-12-20T21:52:13.037Z,7.40
2022-12-20T21:54:39.520Z,6.63
2022-12-20T21:57:06.031Z,6.70
2022-12-20T21:59:32.574Z,7.00
2022-12-20T22:01:59.912Z,6.50
2022-12-20T22:04:26.683Z,7.30
2022-12-20T22:06:53.200Z,7.00
2022-12-20T22:09:19.968Z,7.43
2022-12-20T22:11:46.507Z,6.80
2022-12-20T22:14:13.593Z,7.67
2022-12-20T22:16:40.170Z,8.07
2022-12-20T22:19:06.676Z,7.40
2022-12-20T22:21:33.224Z,8.33
2022-12-20T22:23:59.809Z,8.03
2022-12-20T22:26:26.320Z,7.53
2022-12-20T22:28:52.832Z,7.40
2022-12-20T22:31:19.350Z,7.57
2022-12-20T22:33:45.990Z,7.13
2022-12-20T22:36:12.503Z,6.27
2022-12-20T22:38:39.044Z,7.40
2022-12-20T22:41:06.278Z,6.10
2022-12-20T22:43:32.764Z,7.20
2022-12-20T22:45:59.393Z,6.20
2022-12-20T22:48:26.008Z,6.23
2022-12-20T22:50:52.500Z,7.80
2022-12-20T22:53:19.013Z,6.73
2022-12-20T22:55:45.492Z,7.03
2022-12-20T22:58:12.007Z,8.27
2022-12-20T23:00:38.539Z,6.80
2022-12-20T23:03:05.524Z,6.07
2022-12-20T23:05:32.268Z,7.20
2022-12-20T23:07:58.874Z,5.37
2022-12-20T23:10:44.316Z,6.73
2022-12-20T23:13:29.663Z,5.90
2022-12-20T23:15:56.165Z,5.43
2022-12-20T23:18:22.670Z,5.60
2022-12-20T23:21:08.118Z,6.50
2022-12-20T23:23:34.664Z,5.63
2022-12-20T23:26:01.294Z,5.87
2022-12-20T23:28:27.776Z,5.83
2022-12-20T23:30:54.253Z,5.70
2022-12-20T23:33:20.778Z,5.40
2022-12-20T23:35:47.284Z,6.03
2022-12-20T23:38:13.814Z,4.87
2022-12-20T23:40:40.281Z,5.00
2022-12-20T23:43:06.818Z,4.57
2022-12-20T23:45:33.569Z,4.23
2022-12-20T23:48:00.121Z,4.10
2022-12-20T23:50:26.610Z,4.73
2022-12-20T23:52:53.107Z,4.63
2022-12-20T23:55:19.643Z,4.77
2022-12-20T23:57:46.143Z,4.73
